Time;durP1;ratioP1;P1;durP2;ratioP2;P2;SDS_P1;SDS_P2;PMS_P1;PMS_P2;Temp;Humidity;BMP_temperature;BMP_pressure;BME280_temperature;BME280_humidity;BME280_pressure;Samples;Min_cycle;Max_cycle;Signal;HPM_P1;HPM_P2
2021/08/04 00:00:35;;;;;;;6.40;5.78;;;18.70;65.90;;;;;;1488377;39;20027;-59
2021/08/04 00:01:56;;;;;;;6.55;5.88;;;18.60;65.90;;;;;;1491667;39;20107;-59
2021/08/04 00:03:17;;;;;;;7.10;6.40;;;18.60;65.90;;;;;;1490102;39;20043;-59
2021/08/04 00:04:38;;;;;;;7.85;6.65;;;18.60;65.90;;;;;;1490486;39;20049;-60
2021/08/04 00:05:59;;;;;;;7.05;6.32;;;18.60;66.00;;;;;;1491897;39;20059;-57
2021/08/04 00:07:20;;;;;;;8.20;6.47;;;18.60;66.00;;;;;;1489866;39;20032;-59
2021/08/04 00:08:41;;;;;;;7.35;6.72;;;18.60;66.00;;;;;;1492180;39;20043;-59
2021/08/04 00:10:03;;;;;;;7.60;6.85;;;18.60;66.10;;;;;;1491487;39;20042;-58
2021/08/04 00:11:25;;;;;;;8.82;6.28;;;18.60;66.10;;;;;;1491079;39;20161;-60
2021/08/04 00:12:46;;;;;;;7.20;6.50;;;18.50;66.00;;;;;;1490696;39;20027;-59
2021/08/04 00:14:07;;;;;;;6.00;5.43;;;18.60;66.00;;;;;;1490360;39;20044;-60
2021/08/04 00:15:28;;;;;;;6.63;6.03;;;18.50;66.00;;;;;;1491631;39;20028;-60
2021/08/04 00:16:49;;;;;;;6.35;5.47;;;18.50;66.10;;;;;;1488498;39;20372;-60
2021/08/04 00:18:10;;;;;;;6.50;5.90;;;18.50;66.20;;;;;;1491305;39;20268;-60
2021/08/04 00:19:31;;;;;;;6.72;6.00;;;18.50;66.20;;;;;;1488125;39;20035;-59
2021/08/04 00:20:52;;;;;;;6.90;5.65;;;18.50;66.30;;;;;;1490170;39;20031;-60
2021/08/04 00:22:13;;;;;;;6.60;6.00;;;18.50;66.30;;;;;;1489376;39;20082;-60
2021/08/04 00:23:34;;;;;;;6.70;5.72;;;18.50;66.30;;;;;;1487428;39;20282;-59
2021/08/04 00:24:55;;;;;;;6.85;5.90;;;18.40;66.30;;;;;;1489521;39;20040;-59
2021/08/04 00:26:16;;;;;;;6.25;5.65;;;18.40;66.30;;;;;;1491149;39;20032;-59
2021/08/04 00:27:37;;;;;;;7.18;6.47;;;18.40;66.30;;;;;;1490439;39;20030;-59
2021/08/04 00:28:58;;;;;;;7.15;6.18;;;18.40;66.30;;;;;;1488542;39;20097;-59
2021/08/04 00:30:19;;;;;;;7.00;6.28;;;18.40;66.30;;;;;;1488308;39;20353;-59
2021/08/04 00:31:40;;;;;;;7.63;6.03;;;18.40;66.30;;;;;;1487994;39;20108;-59
2021/08/04 00:33:01;;;;;;;7.63;6.72;;;18.30;66.30;;;;;;1490107;39;20053;-59
2021/08/04 00:34:22;;;;;;;6.95;6.25;;;18.30;66.40;;;;;;1489597;39;20020;-59
2021/08/04 00:35:43;;;;;;;7.45;6.75;;;18.30;66.50;;;;;;1490644;39;20444;-59
2021/08/04 00:37:03;;;;;;;6.88;6.18;;;18.30;66.50;;;;;;1490188;39;20049;-59
2021/08/04 00:38:24;;;;;;;7.88;6.35;;;18.30;66.40;;;;;;1490743;39;20039;-60
2021/08/04 00:39:46;;;;;;;6.50;5.82;;;18.30;66.40;;;;;;1488957;39;20117;-58
2021/08/04 00:41:07;;;;;;;7.32;6.30;;;18.30;66.50;;;;;;1489983;39;20039;-58
2021/08/04 00:42:28;;;;;;;6.85;6.15;;;18.30;66.50;;;;;;1492210;39;20367;-58
2021/08/04 00:43:49;;;;;;;6.80;6.18;;;18.30;66.50;;;;;;1489582;39;20035;-58
2021/08/04 00:45:10;;;;;;;8.70;7.25;;;18.30;66.50;;;;;;1491803;39;20083;-59
2021/08/04 00:46:31;;;;;;;7.07;6.38;;;18.30;66.50;;;;;;1489288;39;20024;-58
2021/08/04 00:47:52;;;;;;;7.13;6.03;;;18.20;66.40;;;;;;1489280;39;20035;-57
2021/08/04 00:49:14;;;;;;;8.73;6.90;;;18.20;66.40;;;;;;1489557;39;20050;-58
2021/08/04 00:50:35;;;;;;;7.50;6.80;;;18.20;66.50;;;;;;1488045;39;20064;-59
2021/08/04 00:51:56;;;;;;;6.88;6.18;;;18.20;66.50;;;;;;1491104;39;20038;-58
2021/08/04 00:53:22;;;;;;;6.85;6.15;;;18.10;66.40;;;;;;1490376;39;20031;-59
2021/08/04 00:54:43;;;;;;;7.55;6.40;;;18.20;66.50;;;;;;1486408;39;20036;-58
2021/08/04 00:56:09;;;;;;;7.63;6.82;;;18.20;66.50;;;;;;1489464;39;20045;-59
2021/08/04 00:57:30;;;;;;;7.18;6.47;;;18.10;66.70;;;;;;1492281;39;20345;-58
2021/08/04 00:58:51;;;;;;;7.05;6.35;;;18.10;66.50;;;;;;1486489;39;20134;-58
2021/08/04 01:00:12;;;;;;;6.13;5.53;;;18.10;66.50;;;;;;1485981;39;20032;-59
2021/08/04 01:01:40;;;;;;;6.22;5.63;;;18.00;66.50;;;;;;1488888;39;20024;-59
2021/08/04 01:03:05;;;;;;;7.32;6.28;;;18.00;66.80;;;;;;1491853;39;20089;-59
2021/08/04 01:04:28;;;;;;;6.47;5.65;;;18.00;66.60;;;;;;1490969;39;20147;-59
2021/08/04 01:05:56;;;;;;;6.90;6.20;;;18.00;66.70;;;;;;1489840;39;20355;-59
2021/08/04 01:07:31;;;;;;;8.05;6.22;;;18.00;66.80;;;;;;1490971;39;20368;-59
2021/08/04 01:08:56;;;;;;;7.50;6.43;;;18.00;66.80;;;;;;1489611;39;20016;-59
2021/08/04 01:10:29;;;;;;;7.78;5.80;;;18.00;66.70;;;;;;1484909;39;20024;-59
2021/08/04 01:11:58;;;;;;;8.60;6.30;;;17.90;66.90;;;;;;1488912;39;20048;-60
2021/08/04 01:13:38;;;;;;;6.53;5.82;;;17.90;67.50;;;;;;1489762;39;20051;-59
2021/08/04 01:15:03;;;;;;;7.25;6.50;;;17.90;67.00;;;;;;1486612;39;20312;-59
2021/08/04 01:16:28;;;;;;;6.93;6.22;;;17.90;66.50;;;;;;1487979;39;20043;-59
2021/08/04 01:17:51;;;;;;;6.82;6.18;;;17.90;66.50;;;;;;1488002;39;20085;-59
2021/08/04 01:19:31;;;;;;;8.50;6.80;;;17.80;66.50;;;;;;1481988;39;20040;-59
2021/08/04 01:20:52;;;;;;;;;;;17.80;67.00;;;;;;1484411;40;20028;-59
2021/08/04 01:22:38;;;;;;;7.05;6.35;;;17.80;67.10;;;;;;1486520;40;19947;-58
2021/08/04 01:24:11;;;;;;;6.65;6.05;;;17.80;66.80;;;;;;1488298;39;20056;-58
2021/08/04 01:25:56;;;;;;;6.65;5.97;;;17.80;66.80;;;;;;1490429;39;20081;-59
2021/08/04 01:27:18;;;;;;;7.47;6.78;;;17.80;66.80;;;;;;1489848;39;20132;-58
2021/08/04 01:28:51;;;;;;;7.65;6.85;;;17.80;66.50;;;;;;1490509;39;20023;-60
2021/08/04 01:30:12;;;;;;;7.40;6.68;;;17.80;67.10;;;;;;1485744;39;20051;-58
2021/08/04 01:31:34;;;;;;;7.72;6.93;;;17.70;67.40;;;;;;1485550;39;20389;-58
2021/08/04 01:32:55;;;;;;;9.23;6.82;;;17.70;66.80;;;;;;1491300;39;20032;-59
2021/08/04 01:34:18;;;;;;;7.13;6.43;;;17.70;67.00;;;;;;1490929;39;20249;-58
2021/08/04 01:35:41;;;;;;;8.10;7.20;;;17.60;67.00;;;;;;1489563;39;20040;-59
2021/08/04 01:37:04;;;;;;;7.95;6.57;;;17.60;67.10;;;;;;1489070;39;20028;-58
2021/08/04 01:38:25;;;;;;;7.60;6.90;;;17.60;67.20;;;;;;1490833;39;20024;-59
2021/08/04 01:39:48;;;;;;;7.88;7.18;;;17.60;67.20;;;;;;1489374;39;20068;-59
2021/08/04 01:41:11;;;;;;;7.55;6.85;;;17.60;67.30;;;;;;1489988;39;20037;-59
2021/08/04 01:42:35;;;;;;;6.60;6.00;;;17.60;67.40;;;;;;1489336;39;20032;-59
2021/08/04 01:43:57;;;;;;;8.10;7.30;;;17.50;67.30;;;;;;1489549;39;20665;-59
2021/08/04 01:45:18;;;;;;;7.90;6.95;;;17.60;67.40;;;;;;1490860;39;20034;-59
2021/08/04 01:46:40;;;;;;;9.27;7.15;;;17.50;67.40;;;;;;1489690;39;20043;-59
2021/08/04 01:48:01;;;;;;;8.00;6.68;;;17.60;67.50;;;;;;1489966;39;20124;-59
2021/08/04 01:49:22;;;;;;;8.70;7.60;;;17.50;67.40;;;;;;1487639;39;20036;-59
2021/08/04 01:50:43;;;;;;;9.98;8.25;;;17.50;67.40;;;;;;1487970;39;20032;-59
2021/08/04 01:52:06;;;;;;;8.10;7.30;;;17.50;67.50;;;;;;1489473;39;20116;-58
2021/08/04 01:53:29;;;;;;;7.07;6.38;;;17.50;67.60;;;;;;1490014;39;20028;-58
2021/08/04 01:54:51;;;;;;;7.22;6.53;;;17.50;67.60;;;;;;1489012;39;20032;-59
2021/08/04 01:56:14;;;;;;;8.10;6.63;;;17.50;67.60;;;;;;1490941;39;20507;-59
2021/08/04 01:57:38;;;;;;;7.30;6.65;;;17.50;67.60;;;;;;1490599;39;20024;-58
2021/08/04 01:58:59;;;;;;;7.72;7.03;;;17.40;67.70;;;;;;1489476;39;20053;-59
2021/08/04 02:00:20;;;;;;;7.13;6.40;;;17.40;67.60;;;;;;1488307;39;20032;-58
2021/08/04 02:01:40;;;;;;;7.70;6.90;;;17.40;67.70;;;;;;1488023;39;20027;-59
2021/08/04 02:03:01;;;;;;;7.57;6.90;;;17.40;67.60;;;;;;1489336;39;20055;-59
2021/08/04 02:04:22;;;;;;;8.52;6.90;;;17.40;67.70;;;;;;1491293;39;20385;-59
2021/08/04 02:05:45;;;;;;;7.43;6.72;;;17.40;67.70;;;;;;1489669;39;20040;-59
2021/08/04 02:07:10;;;;;;;8.00;7.20;;;17.40;67.90;;;;;;1489679;39;20043;-59
2021/08/04 02:08:46;;;;;;;7.60;6.90;;;17.40;67.90;;;;;;1490984;39;20386;-59
2021/08/04 02:10:11;;;;;;;7.60;6.80;;;17.40;68.10;;;;;;1491679;39;20117;-59
2021/08/04 02:11:45;;;;;;;7.53;6.82;;;17.40;67.70;;;;;;1491247;39;20423;-59
2021/08/04 02:13:45;;;;;;;7.60;6.90;;;17.30;67.90;;;;;;1491221;39;20089;-59
2021/08/04 02:15:10;;;;;;;7.38;6.68;;;17.30;68.20;;;;;;1488254;39;20043;-59
2021/08/04 02:16:55;;;;;;;8.65;7.68;;;17.30;67.70;;;;;;1490272;39;20035;-59
2021/08/04 02:18:20;;;;;;;7.88;7.07;;;17.30;68.10;;;;;;1490152;39;20032;-58
2021/08/04 02:19:50;;;;;;;7.40;6.50;;;17.30;68.40;;;;;;1490535;39;20050;-59
2021/08/04 02:21:13;;;;;;;7.18;6.28;;;17.30;67.70;;;;;;1489135;39;20058;-58
2021/08/04 02:22:56;;;;;;;9.00;6.95;;;17.30;67.70;;;;;;1489454;39;20268;-59
2021/08/04 02:24:19;;;;;;;8.93;7.00;;;17.30;67.70;;;;;;1487418;39;20583;-59
2021/08/04 02:26:00;;;;;;;9.05;6.93;;;17.30;67.60;;;;;;1487864;39;20023;-58
2021/08/04 02:27:21;;;;;;;7.03;6.32;;;17.30;68.00;;;;;;1491000;39;20320;-59
2021/08/04 02:28:46;;;;;;;7.30;6.55;;;17.30;67.70;;;;;;1490420;39;20019;-59
2021/08/04 02:30:13;;;;;;;7.93;7.20;;;17.30;67.90;;;;;;1489340;39;20129;-59
2021/08/04 02:31:34;;;;;;;8.40;7.10;;;17.20;68.10;;;;;;1489160;39;20024;-59
2021/08/04 02:32:56;;;;;;;7.35;6.60;;;17.20;68.00;;;;;;1489631;39;20032;-59
2021/08/04 02:34:19;;;;;;;8.75;7.93;;;17.20;68.10;;;;;;1488809;39;20297;-59
2021/08/04 02:35:40;;;;;;;8.88;7.97;;;17.20;68.10;;;;;;1488414;39;20036;-59
2021/08/04 02:37:01;;;;;;;9.15;8.25;;;17.20;68.30;;;;;;1488878;39;20027;-59
2021/08/04 02:38:22;;;;;;;9.50;8.57;;;17.20;68.40;;;;;;1489603;39;20032;-59
2021/08/04 02:39:43;;;;;;;9.95;8.63;;;17.20;68.50;;;;;;1489642;39;20067;-59
2021/08/04 02:41:04;;;;;;;8.43;7.53;;;17.20;68.50;;;;;;1488594;39;20036;-59
2021/08/04 02:42:27;;;;;;;8.05;7.25;;;17.20;68.60;;;;;;1489959;39;20362;-59
2021/08/04 02:43:48;;;;;;;7.35;6.43;;;17.20;68.60;;;;;;1489153;39;20034;-59
2021/08/04 02:45:09;;;;;;;8.02;7.10;;;17.10;68.50;;;;;;1491601;39;20038;-58
2021/08/04 02:46:31;;;;;;;7.55;6.75;;;17.10;68.50;;;;;;1490530;39;20125;-59
2021/08/04 02:47:53;;;;;;;7.95;7.15;;;17.10;68.50;;;;;;1489748;39;20036;-58
2021/08/04 02:49:15;;;;;;;7.15;6.50;;;17.10;68.60;;;;;;1490111;39;20255;-58
2021/08/04 02:50:38;;;;;;;8.60;7.25;;;17.10;68.50;;;;;;1489387;39;20016;-58
2021/08/04 02:51:59;;;;;;;6.78;6.07;;;17.10;68.60;;;;;;1490918;39;20047;-58
2021/08/04 02:53:20;;;;;;;6.75;6.15;;;17.10;68.50;;;;;;1491572;39;20149;-59
2021/08/04 02:54:44;;;;;;;7.28;6.55;;;17.10;68.50;;;;;;1488299;39;20016;-59
2021/08/04 02:56:06;;;;;;;7.15;6.53;;;17.10;68.70;;;;;;1491568;39;20035;-59
2021/08/04 02:57:26;;;;;;;6.78;6.18;;;17.10;68.70;;;;;;1487469;39;20052;-59
2021/08/04 02:58:47;;;;;;;8.02;6.90;;;17.10;68.70;;;;;;1488433;40;20024;-59
2021/08/04 03:00:09;;;;;;;7.40;6.65;;;17.10;68.70;;;;;;1491968;39;20058;-59
2021/08/04 03:01:30;;;;;;;7.05;6.35;;;17.10;68.70;;;;;;1488013;39;20369;-59
2021/08/04 03:02:51;;;;;;;6.97;6.28;;;17.10;68.70;;;;;;1490191;39;20036;-58
2021/08/04 03:04:11;;;;;;;6.57;6.00;;;17.10;68.70;;;;;;1489773;39;20459;-59
2021/08/04 03:05:33;;;;;;;6.72;6.13;;;17.10;68.70;;;;;;1489796;39;20024;-59
2021/08/04 03:06:54;;;;;;;6.85;6.03;;;17.10;68.60;;;;;;1486923;40;20090;-59
2021/08/04 03:08:14;;;;;;;6.68;6.03;;;17.10;68.60;;;;;;1487517;39;20036;-59
2021/08/04 03:09:35;;;;;;;7.28;6.60;;;17.10;68.60;;;;;;1488789;39;20385;-59
2021/08/04 03:10:56;;;;;;;7.43;6.68;;;17.10;68.60;;;;;;1491363;39;20371;-58
2021/08/04 03:12:17;;;;;;;8.48;7.70;;;17.10;68.60;;;;;;1489650;39;20024;-59
2021/08/04 03:13:38;;;;;;;8.70;6.75;;;17.00;68.50;;;;;;1488636;39;20035;-59
2021/08/04 03:14:59;;;;;;;8.18;7.38;;;17.00;68.50;;;;;;1489360;39;20112;-59
2021/08/04 03:16:21;;;;;;;7.20;6.50;;;17.00;68.60;;;;;;1490428;39;20023;-59
2021/08/04 03:17:42;;;;;;;8.15;7.25;;;17.00;68.60;;;;;;1491847;39;20028;-59
2021/08/04 03:19:03;;;;;;;8.90;8.00;;;17.00;68.60;;;;;;1490229;39;20023;-59
2021/08/04 03:20:24;;;;;;;9.73;8.30;;;17.00;68.60;;;;;;1490656;39;20241;-59
2021/08/04 03:21:45;;;;;;;8.90;8.00;;;17.00;68.70;;;;;;1490422;39;20117;-59
2021/08/04 03:23:07;;;;;;;7.88;7.18;;;17.00;68.70;;;;;;1487835;39;20035;-59
2021/08/04 03:24:28;;;;;;;8.55;7.70;;;17.00;68.70;;;;;;1487827;39;20109;-59
2021/08/04 03:25:49;;;;;;;8.35;7.32;;;17.00;68.70;;;;;;1487060;40;20650;-59
2021/08/04 03:27:10;;;;;;;8.27;7.47;;;17.00;68.70;;;;;;1490660;39;20047;-59
2021/08/04 03:28:31;;;;;;;7.47;6.65;;;17.00;68.60;;;;;;1487996;39;20024;-59
2021/08/04 03:29:52;;;;;;;8.20;7.40;;;17.00;68.70;;;;;;1490551;39;20039;-59
2021/08/04 03:31:13;;;;;;;9.35;7.38;;;17.00;68.60;;;;;;1490315;39;20036;-59
2021/08/04 03:32:37;;;;;;;9.10;8.20;;;17.00;68.60;;;;;;1489669;39;20023;-59
2021/08/04 03:33:58;;;;;;;9.90;7.55;;;17.00;68.60;;;;;;1489705;39;20035;-58
2021/08/04 03:35:19;;;;;;;9.18;8.27;;;17.00;68.50;;;;;;1490681;39;20032;-58
2021/08/04 03:36:40;;;;;;;9.25;8.15;;;17.00;68.60;;;;;;1488808;39;20979;-59
2021/08/04 03:38:01;;;;;;;9.93;7.88;;;17.00;68.50;;;;;;1491386;39;20392;-59
2021/08/04 03:39:22;;;;;;;8.27;7.47;;;16.90;68.50;;;;;;1492046;39;20031;-58
2021/08/04 03:40:43;;;;;;;8.25;7.45;;;16.90;68.50;;;;;;1488115;39;20038;-59
2021/08/04 03:42:04;;;;;;;9.70;8.68;;;16.90;68.50;;;;;;1488896;39;20047;-58
2021/08/04 03:43:25;;;;;;;8.63;7.70;;;16.90;68.60;;;;;;1489537;39;20037;-59
2021/08/04 03:44:46;;;;;;;9.18;8.05;;;16.90;68.70;;;;;;1491098;39;20038;-58
2021/08/04 03:46:06;;;;;;;8.77;7.88;;;16.90;68.70;;;;;;1490217;39;20057;-59
2021/08/04 03:47:27;;;;;;;10.85;8.82;;;16.80;68.70;;;;;;1490794;39;20028;-59
2021/08/04 03:48:48;;;;;;;12.93;9.05;;;16.80;68.80;;;;;;1489432;39;20043;-59
2021/08/04 03:50:10;;;;;;;10.38;8.85;;;16.80;68.90;;;;;;1490560;39;20089;-59
2021/08/04 03:51:31;;;;;;;11.48;8.95;;;16.70;69.00;;;;;;1489400;39;20048;-58
2021/08/04 03:52:52;;;;;;;12.45;9.10;;;16.80;69.00;;;;;;1488915;39;20020;-59
2021/08/04 03:54:13;;;;;;;9.73;7.90;;;16.70;69.10;;;;;;1482531;40;20024;-58
2021/08/04 03:55:34;;;;;;;11.20;8.50;;;16.70;69.10;;;;;;1488957;39;20258;-59
2021/08/04 03:56:55;;;;;;;9.38;8.48;;;16.70;69.20;;;;;;1490821;39;20028;-59
2021/08/04 03:58:16;;;;;;;8.70;7.90;;;16.70;69.30;;;;;;1489632;39;20039;-59
2021/08/04 03:59:37;;;;;;;9.27;8.25;;;16.70;69.30;;;;;;1490871;39;20020;-59
2021/08/04 04:00:58;;;;;;;10.13;8.77;;;16.70;69.40;;;;;;1490578;39;20024;-58
2021/08/04 04:02:18;;;;;;;9.43;8.43;;;16.70;69.50;;;;;;1488108;39;20020;-59
2021/08/04 04:03:39;;;;;;;10.80;9.18;;;16.70;70.30;;;;;;1489052;39;20044;-58
2021/08/04 04:05:00;;;;;;;10.00;8.65;;;16.70;69.70;;;;;;1490359;39;20071;-59
2021/08/04 04:06:21;;;;;;;11.05;9.25;;;16.60;69.70;;;;;;1490630;39;20039;-59
2021/08/04 04:07:42;;;;;;;9.65;8.77;;;16.60;69.80;;;;;;1491021;39;20028;-59
2021/08/04 04:09:03;;;;;;;9.90;8.90;;;16.60;69.80;;;;;;1489496;39;20047;-59
2021/08/04 04:10:24;;;;;;;10.52;9.23;;;16.60;69.80;;;;;;1490366;39;20036;-59
2021/08/04 04:11:45;;;;;;;9.88;8.77;;;16.60;69.80;;;;;;1490070;39;20113;-58
2021/08/04 04:13:06;;;;;;;13.38;10.10;;;16.60;69.90;;;;;;1487181;40;20039;-59
2021/08/04 04:14:27;;;;;;;10.73;9.68;;;16.70;70.00;;;;;;1487660;39;20059;-59
2021/08/04 04:15:47;;;;;;;11.10;8.93;;;16.60;70.10;;;;;;1489342;39;20024;-59
2021/08/04 04:17:08;;;;;;;11.45;9.60;;;16.60;70.10;;;;;;1486169;39;20582;-59
2021/08/04 04:18:29;;;;;;;12.00;10.00;;;16.60;70.10;;;;;;1487750;40;20031;-59
2021/08/04 04:19:50;;;;;;;11.00;9.90;;;16.60;70.20;;;;;;1491044;39;20044;-59
2021/08/04 04:21:11;;;;;;;11.57;10.38;;;16.60;70.30;;;;;;1490442;39;20537;-59
2021/08/04 04:22:32;;;;;;;12.65;10.48;;;16.70;71.10;;;;;;1491773;39;20020;-59
2021/08/04 04:23:53;;;;;;;12.02;10.80;;;16.70;70.40;;;;;;1489294;39;20036;-59
2021/08/04 04:25:15;;;;;;;11.35;10.07;;;16.70;70.40;;;;;;1489209;39;20061;-58
2021/08/04 04:26:36;;;;;;;11.10;9.77;;;16.70;70.50;;;;;;1490009;39;20020;-59
2021/08/04 04:27:57;;;;;;;11.07;9.52;;;16.70;70.40;;;;;;1490616;39;20032;-59
2021/08/04 04:29:18;;;;;;;11.55;9.82;;;16.70;70.40;;;;;;1489494;39;20086;-59
2021/08/04 04:30:39;;;;;;;11.60;9.73;;;16.70;70.40;;;;;;1488739;39;20120;-59
2021/08/04 04:32:00;;;;;;;10.85;9.75;;;16.70;70.40;;;;;;1490085;39;20047;-58
2021/08/04 04:33:21;;;;;;;10.02;9.02;;;16.70;70.40;;;;;;1490895;39;20039;-59
2021/08/04 04:34:42;;;;;;;10.70;9.23;;;16.70;70.40;;;;;;1490950;39;20024;-59
2021/08/04 04:36:03;;;;;;;10.73;9.25;;;16.70;70.30;;;;;;1491023;39;20067;-59
2021/08/04 04:37:24;;;;;;;9.45;8.45;;;16.70;70.40;;;;;;1490205;39;20043;-59
2021/08/04 04:38:44;;;;;;;10.45;8.73;;;16.70;70.50;;;;;;1488804;39;20357;-59
2021/08/04 04:40:06;;;;;;;10.25;9.07;;;16.70;70.60;;;;;;1488673;39;20044;-59
2021/08/04 04:41:27;;;;;;;14.13;10.88;;;16.70;70.70;;;;;;1490262;39;20467;-59
2021/08/04 04:42:48;;;;;;;11.13;9.95;;;16.70;70.80;;;;;;1491027;39;20339;-59
2021/08/04 04:44:09;;;;;;;13.85;12.43;;;16.70;70.90;;;;;;1490721;39;20404;-59
2021/08/04 04:45:30;;;;;;;14.30;12.52;;;16.70;71.00;;;;;;1490850;39;20027;-59
2021/08/04 04:46:51;;;;;;;20.40;15.48;;;16.70;71.10;;;;;;1489353;39;20378;-59
2021/08/04 04:48:12;;;;;;;16.90;14.35;;;16.80;71.30;;;;;;1489184;39;20036;-58
2021/08/04 04:49:33;;;;;;;17.83;14.43;;;16.70;71.40;;;;;;1489783;39;20027;-58
2021/08/04 04:50:53;;;;;;;19.88;15.30;;;16.80;71.50;;;;;;1490489;39;20028;-59
2021/08/04 04:52:14;;;;;;;18.23;15.13;;;16.80;71.60;;;;;;1490070;39;20047;-59
2021/08/04 04:53:35;;;;;;;18.65;15.38;;;16.90;71.70;;;;;;1489519;39;20032;-59
2021/08/04 04:54:56;;;;;;;17.48;15.70;;;16.90;71.80;;;;;;1489160;39;20028;-58
2021/08/04 04:56:18;;;;;;;17.77;15.88;;;16.90;71.80;;;;;;1484566;39;20036;-59
2021/08/04 04:57:39;;;;;;;17.27;15.10;;;16.90;71.90;;;;;;1487059;39;20627;-58
2021/08/04 04:59:00;;;;;;;18.15;15.98;;;16.90;71.90;;;;;;1489264;39;20047;-58
2021/08/04 05:00:20;;;;;;;15.95;13.65;;;16.90;71.90;;;;;;1490370;39;20446;-59
2021/08/04 05:01:41;;;;;;;16.23;13.80;;;16.90;71.90;;;;;;1490990;39;20023;-59
2021/08/04 05:03:02;;;;;;;17.05;14.32;;;17.00;72.00;;;;;;1489816;39;20039;-59
2021/08/04 05:04:23;;;;;;;16.30;14.43;;;17.00;72.00;;;;;;1491297;39;20032;-59
2021/08/04 05:05:45;;;;;;;17.75;14.00;;;17.00;72.10;;;;;;1490289;39;20261;-59
2021/08/04 05:07:06;;;;;;;15.50;13.85;;;17.00;72.10;;;;;;1490257;39;20040;-59
2021/08/04 05:08:27;;;;;;;14.93;12.43;;;17.00;72.10;;;;;;1491834;39;20067;-59
2021/08/04 05:09:48;;;;;;;13.90;12.35;;;17.00;72.10;;;;;;1487401;39;20040;-58
2021/08/04 05:11:09;;;;;;;14.98;12.60;;;17.10;72.20;;;;;;1486146;40;20036;-59
2021/08/04 05:12:30;;;;;;;13.77;12.32;;;17.10;72.10;;;;;;1484883;40;20019;-59
2021/08/04 05:13:50;;;;;;;13.55;12.15;;;17.10;72.20;;;;;;1484710;39;20032;-58
2021/08/04 05:15:12;;;;;;;13.57;12.18;;;17.10;72.20;;;;;;1485840;39;20032;-59
2021/08/04 05:16:32;;;;;;;17.25;12.85;;;17.10;72.20;;;;;;1484433;40;20056;-58
2021/08/04 05:17:53;;;;;;;12.80;11.40;;;17.20;72.30;;;;;;1482733;40;20040;-59
2021/08/04 05:19:14;;;;;;;14.52;11.63;;;17.20;72.30;;;;;;1481052;40;20029;-59
2021/08/04 05:20:36;;;;;;;16.80;11.98;;;17.20;72.30;;;;;;1485649;40;20306;-59
2021/08/04 05:21:57;;;;;;;14.30;12.15;;;17.20;72.30;;;;;;1485106;40;20324;-59
2021/08/04 05:23:18;;;;;;;12.45;10.95;;;17.20;72.30;;;;;;1486392;39;20028;-59
2021/08/04 05:24:38;;;;;;;12.23;10.93;;;17.20;72.20;;;;;;1485484;40;20048;-59
2021/08/04 05:25:59;;;;;;;13.82;12.35;;;17.20;72.30;;;;;;1485463;40;20089;-59
2021/08/04 05:27:20;;;;;;;16.73;12.73;;;17.30;72.30;;;;;;1485211;39;20491;-59
2021/08/04 05:28:41;;;;;;;13.13;11.73;;;17.30;72.20;;;;;;1481474;40;20071;-58
2021/08/04 05:30:02;;;;;;;11.95;10.65;;;17.30;72.10;;;;;;1486765;39;20032;-58
2021/08/04 05:31:23;;;;;;;14.10;12.38;;;17.30;72.00;;;;;;1489003;39;20020;-59
2021/08/04 05:32:44;;;;;;;16.02;12.60;;;17.30;72.00;;;;;;1485974;40;20072;-59
2021/08/04 05:34:05;;;;;;;14.88;13.18;;;17.30;71.90;;;;;;1487463;40;20323;-59
2021/08/04 05:35:26;;;;;;;13.27;11.48;;;17.30;71.90;;;;;;1486767;39;20383;-59
2021/08/04 05:36:47;;;;;;;12.18;10.88;;;17.30;71.90;;;;;;1487387;40;20102;-59
2021/08/04 05:38:08;;;;;;;14.05;11.35;;;17.30;71.80;;;;;;1487773;39;20121;-59
2021/08/04 05:39:29;;;;;;;12.85;11.50;;;17.30;71.80;;;;;;1486897;39;20041;-59
2021/08/04 05:40:50;;;;;;;12.63;10.85;;;17.30;71.90;;;;;;1487562;39;20024;-58
2021/08/04 05:42:12;;;;;;;12.07;10.65;;;17.30;71.90;;;;;;1487974;40;20270;-59
2021/08/04 05:43:33;;;;;;;10.82;9.68;;;17.40;72.10;;;;;;1486397;40;20065;-59
2021/08/04 05:44:53;;;;;;;14.20;11.00;;;17.40;72.10;;;;;;1486946;39;20087;-58
2021/08/04 05:46:14;;;;;;;14.23;12.82;;;17.40;72.20;;;;;;1482845;40;20036;-58
2021/08/04 05:47:36;;;;;;;14.77;12.73;;;17.40;72.20;;;;;;1484010;40;20029;-59
2021/08/04 05:48:57;;;;;;;14.98;13.38;;;17.40;72.40;;;;;;1486225;39;20129;-59
2021/08/04 05:50:17;;;;;;;13.60;12.20;;;17.40;72.40;;;;;;1486721;39;20109;-59
2021/08/04 05:51:38;;;;;;;15.27;13.48;;;17.40;72.40;;;;;;1484139;40;20283;-59
2021/08/04 05:52:59;;;;;;;15.88;14.18;;;17.40;73.30;;;;;;1485763;39;20036;-59
2021/08/04 05:54:20;;;;;;;15.18;13.55;;;17.40;72.60;;;;;;1486808;40;20469;-59
2021/08/04 05:55:41;;;;;;;16.95;13.68;;;17.40;72.60;;;;;;1484218;39;20258;-59
2021/08/04 05:57:02;;;;;;;13.65;11.88;;;17.50;72.70;;;;;;1487177;39;20039;-59
2021/08/04 05:58:23;;;;;;;14.38;12.43;;;17.50;72.70;;;;;;1487629;39;20040;-59
2021/08/04 05:59:44;;;;;;;15.38;13.68;;;17.50;72.70;;;;;;1484133;39;20044;-58
2021/08/04 06:01:05;;;;;;;14.45;12.95;;;17.50;72.90;;;;;;1485668;40;20087;-59
2021/08/04 06:02:26;;;;;;;14.20;12.55;;;17.50;73.00;;;;;;1488994;39;20109;-59
2021/08/04 06:03:47;;;;;;;14.57;13.07;;;17.50;73.00;;;;;;1485965;40;20032;-58
2021/08/04 06:05:10;;;;;;;13.82;12.27;;;17.60;73.10;;;;;;1485847;40;20076;-58
2021/08/04 06:06:31;;;;;;;14.10;12.02;;;17.60;73.10;;;;;;1486357;40;20024;-59
2021/08/04 06:07:52;;;;;;;16.20;13.55;;;17.60;73.10;;;;;;1487910;40;20145;-59
2021/08/04 06:09:13;;;;;;;13.70;12.35;;;17.60;73.20;;;;;;1484776;40;20416;-59
2021/08/04 06:10:34;;;;;;;13.27;11.80;;;17.60;73.20;;;;;;1485643;40;20053;-58
2021/08/04 06:11:55;;;;;;;13.80;12.50;;;17.60;73.30;;;;;;1488466;39;20044;-59
2021/08/04 06:13:16;;;;;;;14.57;13.00;;;17.70;73.30;;;;;;1484998;39;20043;-58
2021/08/04 06:14:37;;;;;;;14.77;13.25;;;17.70;73.30;;;;;;1489292;39;20027;-59
2021/08/04 06:15:58;;;;;;;12.40;11.18;;;17.70;73.30;;;;;;1487933;39;20060;-58
2021/08/04 06:17:19;;;;;;;13.90;12.35;;;17.70;73.30;;;;;;1485773;39;20024;-59
2021/08/04 06:18:40;;;;;;;14.65;12.25;;;17.80;73.40;;;;;;1484717;39;20091;-58
2021/08/04 06:20:02;;;;;;;14.93;13.25;;;17.80;73.40;;;;;;1486781;39;20345;-59
2021/08/04 06:21:26;;;;;;;14.02;12.40;;;17.80;73.40;;;;;;1489162;39;20034;-58
2021/08/04 06:22:47;;;;;;;14.27;12.82;;;17.80;73.50;;;;;;1486521;39;20031;-59
2021/08/04 06:24:08;;;;;;;14.25;12.77;;;17.80;73.50;;;;;;1489764;39;20059;-59
2021/08/04 06:25:28;;;;;;;14.18;12.43;;;17.90;73.60;;;;;;1485259;40;20024;-59
2021/08/04 06:26:49;;;;;;;15.23;13.48;;;17.90;73.60;;;;;;1486289;39;20125;-59
2021/08/04 06:28:10;;;;;;;15.35;13.75;;;17.90;73.60;;;;;;1486719;40;20040;-59
2021/08/04 06:29:31;;;;;;;16.10;14.35;;;17.90;73.70;;;;;;1487329;40;20032;-59
2021/08/04 06:30:52;;;;;;;15.82;14.23;;;18.00;73.70;;;;;;1485645;40;20645;-58
2021/08/04 06:32:13;;;;;;;15.48;12.77;;;18.00;73.80;;;;;;1486323;40;20102;-59
2021/08/04 06:33:34;;;;;;;15.25;13.07;;;18.00;73.80;;;;;;1487841;39;20102;-59
2021/08/04 06:34:55;;;;;;;14.10;12.60;;;18.00;73.80;;;;;;1487999;40;20028;-59
2021/08/04 06:36:16;;;;;;;15.10;13.40;;;18.10;73.90;;;;;;1487475;40;20043;-59
2021/08/04 06:37:37;;;;;;;15.75;13.35;;;18.10;73.90;;;;;;1489240;39;20034;-59
2021/08/04 06:38:58;;;;;;;15.43;13.73;;;18.10;73.90;;;;;;1488443;40;20040;-59
2021/08/04 06:40:19;;;;;;;17.08;14.38;;;18.10;73.90;;;;;;1487187;39;20024;-58
2021/08/04 06:41:40;;;;;;;15.02;13.50;;;18.20;73.90;;;;;;1486272;39;20030;-59
2021/08/04 06:43:01;;;;;;;14.85;13.35;;;18.20;74.00;;;;;;1486080;39;20368;-59
2021/08/04 06:44:22;;;;;;;15.10;13.48;;;18.20;73.90;;;;;;1487306;39;20113;-59
2021/08/04 06:45:43;;;;;;;15.18;13.20;;;18.20;73.90;;;;;;1486549;40;20085;-58
2021/08/04 06:47:04;;;;;;;16.05;14.10;;;18.30;73.90;;;;;;1486808;39;20040;-59
2021/08/04 06:48:25;;;;;;;16.10;14.45;;;18.30;73.90;;;;;;1487005;39;20020;-58
2021/08/04 06:49:45;;;;;;;16.17;14.48;;;18.30;73.80;;;;;;1486368;39;20066;-58
2021/08/04 06:51:08;;;;;;;17.45;14.48;;;18.30;73.80;;;;;;1486462;39;20040;-59
2021/08/04 06:52:28;;;;;;;16.33;14.63;;;18.40;73.90;;;;;;1488311;39;20031;-59
2021/08/04 06:53:50;;;;;;;17.83;15.43;;;18.40;73.90;;;;;;1485538;39;20045;-59
2021/08/04 06:55:11;;;;;;;18.52;15.05;;;18.40;73.90;;;;;;1488020;39;20331;-58
2021/08/04 06:56:32;;;;;;;17.70;14.43;;;18.40;73.90;;;;;;1488592;39;20072;-58
2021/08/04 06:57:53;;;;;;;17.00;14.35;;;18.50;74.00;;;;;;1487073;39;20044;-59
2021/08/04 06:59:14;;;;;;;16.90;14.23;;;18.50;73.90;;;;;;1488414;39;20028;-58
2021/08/04 07:00:35;;;;;;;15.35;13.75;;;18.50;73.90;;;;;;1485596;40;20373;-59
2021/08/04 07:01:55;;;;;;;17.38;13.90;;;18.50;73.90;;;;;;1486092;39;20317;-58
2021/08/04 07:03:16;;;;;;;14.30;12.68;;;18.60;74.00;;;;;;1488866;39;20116;-59